createdAt,value
2019-06-25T00:02:27.908Z,71.80
2019-06-25T00:05:00.815Z,71.70
2019-06-25T00:07:33.930Z,71.70
2019-06-25T00:10:07.851Z,71.50
2019-06-25T00:12:40.672Z,72.40
2019-06-25T00:15:14.187Z,71.60
2019-06-25T00:17:47.029Z,71.60
2019-06-25T00:20:19.862Z,71.70
2019-06-25T00:22:52.801Z,72.10
2019-06-25T00:25:25.652Z,72.20
2019-06-25T00:27:58.500Z,72.40
2019-06-25T00:30:31.313Z,72.50
2019-06-25T00:33:04.140Z,73.20
2019-06-25T00:35:37.099Z,73.60
2019-06-25T00:38:09.911Z,74.00
2019-06-25T00:40:43.023Z,73.70
2019-06-25T00:43:15.898Z,73.60
2019-06-25T00:45:48.690Z,73.20
2019-06-25T00:48:21.561Z,73.10
2019-06-25T00:50:54.395Z,72.90
2019-06-25T00:53:27.239Z,72.90
2019-06-25T00:56:00.022Z,72.90
2019-06-25T00:58:32.918Z,73.30
2019-06-25T01:01:05.790Z,73.80
2019-06-25T01:03:42.073Z,73.90
2019-06-25T01:06:14.883Z,74.50
2019-06-25T01:08:49.647Z,74.40
2019-06-25T01:11:22.483Z,74.40
2019-06-25T01:13:55.335Z,73.70
2019-06-25T01:16:28.323Z,73.40
2019-06-25T01:19:01.180Z,73.30
2019-06-25T01:21:34.132Z,73.80
2019-06-25T01:24:06.952Z,74.60
2019-06-25T01:26:39.761Z,73.40
2019-06-25T01:29:12.590Z,73.60
2019-06-25T01:31:45.482Z,73.60
2019-06-25T01:34:18.294Z,74.10
2019-06-25T01:36:51.124Z,74.40
2019-06-25T01:39:23.993Z,74.50
2019-06-25T01:41:56.928Z,74.80
2019-06-25T01:44:29.769Z,74.80
2019-06-25T01:47:02.580Z,74.40
2019-06-25T01:49:35.389Z,74.70
2019-06-25T01:52:08.430Z,75.20
2019-06-25T01:54:41.267Z,75.30
2019-06-25T01:57:14.078Z,75.40
2019-06-25T01:59:46.911Z,75.40
2019-06-25T02:02:19.748Z,75.10
2019-06-25T02:04:52.608Z,74.50
2019-06-25T02:07:25.456Z,74.50
2019-06-25T02:09:58.264Z,74.50
2019-06-25T02:12:31.201Z,74.50
2019-06-25T02:15:04.247Z,74.10
2019-06-25T02:17:38.179Z,74.30
2019-06-25T02:20:12.446Z,74.70
2019-06-25T02:22:45.309Z,74.50
2019-06-25T02:25:18.623Z,74.40
2019-06-25T02:27:51.466Z,75.80
2019-06-25T02:30:24.987Z,76.10
2019-06-25T02:32:59.446Z,75.50
2019-06-25T02:35:32.212Z,76.30
2019-06-25T02:38:05.203Z,76.00
2019-06-25T02:40:37.978Z,75.60
2019-06-25T02:43:10.963Z,75.60
2019-06-25T02:45:43.810Z,75.50
2019-06-25T02:48:16.665Z,75.60
2019-06-25T02:50:50.012Z,75.50
2019-06-25T02:53:22.979Z,76.00
2019-06-25T02:55:55.921Z,76.50
2019-06-25T02:58:28.865Z,77.00
2019-06-25T03:01:01.613Z,77.10
2019-06-25T03:03:34.396Z,77.00
2019-06-25T03:06:07.339Z,76.50
2019-06-25T03:08:40.227Z,76.60
2019-06-25T03:11:14.873Z,76.40
2019-06-25T03:13:48.065Z,77.20
2019-06-25T03:16:20.843Z,77.70
2019-06-25T03:18:53.623Z,77.30
2019-06-25T03:21:26.475Z,77.20
2019-06-25T03:23:59.313Z,77.60
2019-06-25T03:26:32.134Z,77.70
2019-06-25T03:29:04.935Z,77.90
2019-06-25T03:32:03.073Z,78.20
2019-06-25T03:34:14.295Z,77.70
2019-06-25T03:36:47.076Z,77.60
2019-06-25T03:39:19.849Z,77.00
2019-06-25T03:41:52.622Z,76.50
2019-06-25T03:44:25.386Z,76.50
2019-06-25T03:46:58.138Z,76.50
2019-06-25T03:49:31.172Z,76.10
2019-06-25T03:52:04.014Z,75.30
2019-06-25T03:54:38.791Z,75.20
2019-06-25T03:57:11.562Z,74.90
2019-06-25T03:59:44.505Z,75.30
2019-06-25T04:02:18.025Z,75.20
2019-06-25T04:04:50.940Z,75.00
2019-06-25T04:07:23.698Z,75.30
2019-06-25T04:09:56.516Z,74.60
2019-06-25T04:12:29.287Z,74.80
2019-06-25T04:15:02.460Z,74.40
2019-06-25T04:17:35.622Z,73.50
2019-06-25T04:20:09.608Z,72.40
2019-06-25T04:22:43.473Z,70.90
2019-06-25T04:25:17.037Z,68.60
2019-06-25T04:27:49.837Z,67.30
2019-06-25T04:30:22.818Z,65.50
2019-06-25T04:32:55.645Z,63.60
2019-06-25T04:35:28.538Z,63.00
2019-06-25T04:38:01.333Z,62.90
2019-06-25T04:40:34.363Z,61.60
2019-06-25T04:43:07.190Z,62.20
2019-06-25T04:45:40.046Z,62.40
2019-06-25T04:48:12.824Z,60.70
2019-06-25T04:50:45.624Z,59.80
2019-06-25T04:53:18.454Z,58.30
2019-06-25T04:55:51.502Z,57.80
2019-06-25T04:58:24.307Z,57.80
2019-06-25T05:00:57.186Z,56.10
2019-06-25T05:03:30.018Z,55.80
2019-06-25T05:06:03.028Z,55.10
2019-06-25T05:08:35.929Z,54.50
2019-06-25T05:11:08.868Z,54.50
2019-06-25T05:13:43.350Z,54.00
2019-06-25T05:16:16.158Z,53.10
2019-06-25T05:18:49.756Z,52.60
2019-06-25T05:21:22.636Z,52.50
2019-06-25T05:23:56.326Z,51.90
2019-06-25T05:26:29.167Z,51.00
2019-06-25T05:29:02.021Z,50.90
2019-06-25T05:31:34.839Z,53.00
2019-06-25T05:34:07.882Z,54.30
2019-06-25T05:37:04.797Z,52.70
2019-06-25T05:39:38.134Z,50.90
2019-06-25T05:42:11.180Z,53.40
2019-06-25T05:44:44.292Z,52.50
2019-06-25T05:47:17.627Z,51.10
2019-06-25T05:49:50.589Z,49.90
2019-06-25T05:52:23.497Z,50.00
2019-06-25T05:54:56.839Z,51.60
2019-06-25T05:57:29.968Z,52.90
2019-06-25T06:00:04.635Z,53.60
2019-06-25T06:02:37.565Z,52.30
2019-06-25T06:05:11.688Z,49.90
2019-06-25T06:07:44.685Z,49.90
2019-06-25T06:10:18.149Z,51.60
2019-06-25T06:12:50.992Z,51.80
2019-06-25T06:15:24.335Z,50.50
2019-06-25T06:18:36.110Z,50.10
2019-06-25T06:21:09.467Z,48.50
2019-06-25T06:23:42.271Z,46.80
2019-06-25T06:26:18.579Z,45.30
2019-06-25T06:28:49.829Z,44.90
2019-06-25T06:31:22.767Z,44.00
2019-06-25T06:33:55.600Z,44.60
2019-06-25T06:36:28.547Z,45.20
2019-06-25T06:39:01.380Z,45.40
2019-06-25T06:41:36.064Z,46.20
2019-06-25T06:44:08.934Z,43.50
2019-06-25T06:46:41.794Z,44.60
2019-06-25T06:49:15.589Z,44.10
2019-06-25T06:51:48.614Z,43.90
2019-06-25T06:54:21.632Z,44.00
2019-06-25T06:56:54.409Z,44.20
2019-06-25T06:59:27.339Z,42.10
2019-06-25T07:02:01.127Z,41.10
2019-06-25T07:04:33.944Z,42.10
2019-06-25T07:07:06.758Z,40.60
2019-06-25T07:09:39.828Z,40.20
2019-06-25T07:12:12.632Z,38.50
2019-06-25T07:14:45.520Z,37.70
2019-06-25T07:17:18.478Z,37.90
2019-06-25T07:19:51.295Z,36.90
2019-06-25T07:22:25.267Z,37.20
2019-06-25T07:24:58.260Z,35.60
2019-06-25T07:27:33.722Z,34.50
2019-06-25T07:30:08.289Z,36.20
2019-06-25T07:32:42.440Z,34.80
2019-06-25T07:35:15.992Z,34.00
2019-06-25T07:37:48.933Z,34.50
2019-06-25T07:40:21.954Z,34.90
2019-06-25T07:42:54.915Z,35.60
2019-06-25T07:45:27.803Z,35.20
2019-06-25T07:48:00.597Z,35.50
2019-06-25T07:50:33.440Z,34.10
2019-06-25T07:53:06.284Z,33.60
2019-06-25T07:55:39.620Z,33.70
2019-06-25T07:58:12.448Z,34.30
2019-06-25T08:00:45.266Z,34.00
2019-06-25T08:03:18.212Z,33.60
2019-06-25T08:05:51.117Z,34.70
2019-06-25T08:08:23.933Z,35.10
2019-06-25T08:10:56.774Z,35.00
2019-06-25T08:13:29.590Z,34.20
2019-06-25T08:16:02.541Z,33.20
2019-06-25T08:18:35.379Z,34.00
2019-06-25T08:21:08.233Z,32.50
2019-06-25T08:23:41.165Z,31.40
2019-06-25T08:26:13.981Z,34.10
2019-06-25T08:28:46.827Z,34.30
2019-06-25T08:31:19.623Z,34.30
2019-06-25T08:33:52.483Z,33.50
2019-06-25T08:36:26.309Z,33.50
2019-06-25T08:38:59.165Z,33.70
2019-06-25T08:41:33.276Z,32.10
2019-06-25T08:44:06.109Z,31.00
2019-06-25T08:46:38.916Z,31.90
2019-06-25T08:49:11.757Z,32.30
2019-06-25T08:51:44.654Z,32.40
2019-06-25T08:54:17.513Z,34.40
2019-06-25T08:56:50.309Z,35.00
2019-06-25T08:59:26.067Z,37.00
2019-06-25T09:01:58.050Z,34.30
2019-06-25T09:04:32.733Z,32.60
2019-06-25T09:07:05.632Z,32.80
2019-06-25T09:09:38.633Z,32.10
2019-06-25T09:12:11.436Z,32.80
2019-06-25T09:14:45.032Z,31.80
2019-06-25T09:17:17.962Z,31.40
2019-06-25T09:19:50.969Z,30.80
2019-06-25T09:22:23.811Z,32.30
2019-06-25T09:24:56.629Z,32.70
2019-06-25T09:27:29.648Z,32.50
2019-06-25T09:30:03.973Z,32.60
2019-06-25T09:32:36.913Z,32.20
2019-06-25T09:35:16.188Z,32.30
2019-06-25T09:37:45.919Z,32.20
2019-06-25T09:40:17.242Z,32.10
2019-06-25T09:42:48.620Z,31.80
2019-06-25T09:45:32.443Z,32.40
2019-06-25T09:48:06.992Z,31.90
2019-06-25T09:50:39.802Z,31.60
2019-06-25T09:53:12.627Z,31.40
2019-06-25T09:55:45.457Z,32.30
2019-06-25T09:58:18.406Z,32.20
2019-06-25T10:00:56.090Z,33.10
2019-06-25T10:03:28.943Z,32.30
2019-06-25T10:06:01.777Z,32.50
2019-06-25T10:08:34.685Z,33.90
2019-06-25T10:11:07.494Z,33.60
2019-06-25T10:13:40.316Z,32.90
2019-06-25T10:16:13.175Z,35.20
2019-06-25T10:18:46.016Z,35.20
2019-06-25T10:21:18.853Z,35.70
2019-06-25T10:23:51.721Z,36.00
2019-06-25T10:26:24.533Z,35.20
2019-06-25T10:28:57.375Z,34.30
2019-06-25T10:31:30.197Z,34.50
2019-06-25T10:34:03.018Z,35.30
2019-06-25T10:36:35.846Z,34.60
2019-06-25T10:39:08.780Z,34.90
2019-06-25T10:41:41.611Z,33.80
2019-06-25T10:44:15.744Z,34.80
2019-06-25T10:46:49.563Z,34.50
2019-06-25T10:49:22.401Z,33.40
2019-06-25T10:51:55.261Z,33.00
2019-06-25T10:54:28.079Z,33.30
2019-06-25T10:57:00.905Z,32.10
2019-06-25T10:59:33.826Z,32.20
2019-06-25T11:02:06.739Z,32.10
2019-06-25T11:04:39.642Z,32.10
2019-06-25T11:07:13.663Z,32.60
2019-06-25T11:09:46.381Z,32.30
2019-06-25T11:12:19.190Z,32.90
2019-06-25T11:14:52.165Z,31.60
2019-06-25T11:17:24.907Z,31.40
2019-06-25T11:19:57.809Z,31.70
2019-06-25T11:22:30.643Z,31.30
2019-06-25T11:25:03.935Z,30.80
2019-06-25T11:27:36.913Z,30.90
2019-06-25T11:30:10.703Z,31.60
2019-06-25T11:32:44.054Z,32.00
2019-06-25T11:35:16.969Z,32.80
2019-06-25T11:37:49.886Z,31.70
2019-06-25T11:40:34.089Z,32.80
2019-06-25T11:43:07.780Z,32.30
2019-06-25T11:45:40.610Z,33.10
2019-06-25T11:48:13.422Z,33.30
2019-06-25T11:50:46.345Z,33.50
2019-06-25T11:53:19.754Z,34.10
2019-06-25T11:55:53.108Z,33.90
2019-06-25T11:58:25.979Z,33.20
2019-06-25T12:00:58.818Z,34.00
2019-06-25T12:03:31.831Z,34.00
2019-06-25T12:06:04.621Z,34.70
2019-06-25T12:08:37.673Z,35.00
2019-06-25T12:11:10.460Z,33.90
2019-06-25T12:13:43.246Z,33.20
2019-06-25T12:16:16.040Z,33.60
2019-06-25T12:18:48.822Z,34.20
2019-06-25T12:21:21.567Z,34.50
2019-06-25T12:23:54.402Z,33.80
2019-06-25T12:26:27.389Z,33.90
2019-06-25T12:29:00.434Z,34.20
2019-06-25T12:31:33.160Z,34.70
2019-06-25T12:34:06.027Z,34.40
2019-06-25T12:36:38.793Z,34.50
2019-06-25T12:39:11.690Z,34.70
2019-06-25T12:41:44.744Z,34.00
2019-06-25T12:44:18.728Z,34.40
2019-06-25T12:47:02.039Z,34.30
2019-06-25T12:49:26.189Z,34.10
2019-06-25T12:51:59.152Z,34.30
2019-06-25T12:54:31.931Z,32.50
2019-06-25T12:57:06.612Z,32.00
2019-06-25T12:59:39.437Z,31.80
2019-06-25T13:02:12.216Z,31.90
2019-06-25T13:04:46.081Z,31.50
2019-06-25T13:07:25.491Z,32.10
2019-06-25T13:09:53.527Z,32.10
2019-06-25T13:12:26.309Z,31.30
2019-06-25T13:14:59.914Z,30.70
2019-06-25T13:17:32.776Z,31.00
2019-06-25T13:20:06.765Z,31.70
2019-06-25T13:22:39.612Z,32.30
2019-06-25T13:25:12.885Z,32.40
2019-06-25T13:27:45.756Z,31.70
2019-06-25T13:30:19.133Z,31.50
2019-06-25T13:32:51.977Z,30.70
2019-06-25T13:35:24.746Z,29.80
2019-06-25T13:37:57.581Z,32.00
2019-06-25T13:40:30.436Z,32.40
2019-06-25T13:43:03.321Z,33.10
2019-06-25T13:45:36.196Z,32.40
2019-06-25T13:48:12.014Z,32.20
2019-06-25T13:50:43.983Z,31.20
2019-06-25T13:53:16.766Z,31.90
2019-06-25T13:55:49.547Z,32.00
2019-06-25T13:58:22.397Z,32.40
2019-06-25T14:00:55.188Z,31.60
2019-06-25T14:03:28.019Z,32.50
2019-06-25T14:06:01.040Z,32.20
2019-06-25T14:08:34.086Z,32.20
2019-06-25T14:11:07.063Z,32.00
2019-06-25T14:13:39.931Z,32.10
2019-06-25T14:16:12.893Z,31.10
2019-06-25T14:18:45.826Z,31.80
2019-06-25T14:21:18.613Z,30.80
2019-06-25T14:23:51.472Z,31.20
2019-06-25T14:26:24.222Z,31.80
2019-06-25T14:28:57.062Z,32.30
2019-06-25T14:31:29.892Z,32.60
2019-06-25T14:34:02.976Z,32.00
2019-06-25T14:36:35.932Z,31.40
2019-06-25T14:39:08.674Z,31.20
2019-06-25T14:41:41.531Z,31.10
2019-06-25T14:44:15.855Z,32.20
2019-06-25T14:46:48.827Z,31.70
2019-06-25T14:49:21.853Z,31.60
2019-06-25T14:51:54.658Z,31.00
2019-06-25T14:54:27.409Z,32.00
2019-06-25T14:57:00.268Z,32.00
2019-06-25T14:59:33.216Z,31.80
2019-06-25T15:02:06.690Z,32.00
2019-06-25T15:04:39.560Z,31.40
2019-06-25T15:07:12.386Z,32.10
2019-06-25T15:09:49.129Z,31.40
2019-06-25T15:12:20.431Z,31.80
2019-06-25T15:14:53.420Z,32.00
2019-06-25T15:17:26.190Z,31.80
2019-06-25T15:19:59.078Z,31.80
2019-06-25T15:22:31.813Z,32.40
2019-06-25T15:25:05.919Z,32.00
2019-06-25T15:27:38.851Z,31.20
2019-06-25T15:30:12.618Z,31.90
2019-06-25T15:32:45.476Z,31.30
2019-06-25T15:35:18.361Z,30.20
2019-06-25T15:37:51.125Z,30.40
2019-06-25T15:40:24.145Z,29.90
2019-06-25T15:42:56.881Z,30.10
2019-06-25T15:45:29.747Z,30.70
2019-06-25T15:48:02.660Z,30.60
2019-06-25T15:50:35.467Z,29.30
2019-06-25T15:53:08.434Z,29.80
2019-06-25T15:55:41.376Z,29.00
2019-06-25T15:58:14.223Z,29.20
2019-06-25T16:00:47.026Z,29.40
2019-06-25T16:03:19.837Z,30.00
2019-06-25T16:05:52.695Z,29.70
2019-06-25T16:08:25.569Z,29.60
2019-06-25T16:10:58.418Z,29.30
2019-06-25T16:13:31.164Z,29.30
2019-06-25T16:16:04.232Z,29.10
2019-06-25T16:18:37.030Z,29.30
2019-06-25T16:21:11.086Z,29.20
2019-06-25T16:23:43.919Z,29.20
2019-06-25T16:26:16.994Z,29.00
2019-06-25T16:28:49.828Z,29.60
2019-06-25T16:31:26.331Z,30.00
2019-06-25T16:33:57.391Z,29.40
2019-06-25T16:36:30.312Z,29.50
2019-06-25T16:39:18.673Z,29.70
2019-06-25T16:41:41.032Z,29.90
2019-06-25T16:44:13.921Z,30.80
2019-06-25T16:46:46.697Z,30.70
2019-06-25T16:49:19.614Z,30.80
2019-06-25T16:51:52.696Z,31.30
2019-06-25T16:54:26.668Z,31.30
2019-06-25T16:56:59.712Z,32.00
2019-06-25T16:59:32.570Z,31.50
2019-06-25T17:02:05.427Z,31.70
2019-06-25T17:04:38.344Z,31.90
2019-06-25T17:07:11.326Z,32.10
2019-06-25T17:09:44.198Z,32.10
2019-06-25T17:12:17.026Z,32.40
2019-06-25T17:14:49.929Z,32.60
2019-06-25T17:17:25.226Z,32.30
2019-06-25T17:19:57.505Z,32.20
2019-06-25T17:22:30.365Z,32.10
2019-06-25T17:25:03.408Z,32.30
2019-06-25T17:27:49.205Z,32.50
2019-06-25T17:30:12.134Z,32.50
2019-06-25T17:32:44.943Z,32.70
2019-06-25T17:35:18.106Z,32.80
2019-06-25T17:37:51.003Z,32.10
2019-06-25T17:40:23.787Z,32.10
2019-06-25T17:42:56.595Z,32.70
2019-06-25T17:45:29.477Z,33.30
2019-06-25T17:48:02.497Z,33.60
2019-06-25T17:50:35.569Z,33.70
2019-06-25T17:53:08.416Z,34.20
2019-06-25T17:55:41.438Z,34.50
2019-06-25T17:58:14.255Z,34.80
2019-06-25T18:00:47.934Z,35.40
2019-06-25T18:03:21.721Z,35.60
2019-06-25T18:05:54.591Z,35.10
2019-06-25T18:08:27.367Z,34.50
2019-06-25T18:11:00.244Z,34.80
2019-06-25T18:13:33.043Z,34.70
2019-06-25T18:16:05.925Z,34.90
2019-06-25T18:18:38.692Z,35.20
2019-06-25T18:21:11.444Z,34.70
2019-06-25T18:23:44.219Z,34.90
2019-06-25T18:26:16.997Z,46.80
2019-06-25T18:28:49.762Z,43.60
2019-06-25T18:31:22.620Z,43.30
2019-06-25T18:33:55.366Z,43.00
2019-06-25T18:36:28.927Z,43.40
2019-06-25T18:39:01.790Z,40.30
2019-06-25T18:41:36.546Z,35.60
2019-06-25T18:44:09.353Z,35.30
2019-06-25T18:46:43.182Z,36.00
2019-06-25T18:49:16.035Z,35.80
2019-06-25T18:51:50.000Z,36.00
2019-06-25T18:54:22.965Z,36.20
2019-06-25T18:56:55.992Z,37.00
2019-06-25T18:59:28.971Z,36.40
2019-06-25T19:02:01.894Z,36.30
2019-06-25T19:04:35.870Z,36.50
2019-06-25T19:07:09.152Z,36.80
2019-06-25T19:09:42.427Z,36.90
2019-06-25T19:12:15.223Z,37.70
2019-06-25T19:14:48.189Z,37.80
2019-06-25T19:17:20.987Z,38.10
2019-06-25T19:19:53.776Z,38.20
2019-06-25T19:22:26.559Z,38.60
2019-06-25T19:24:59.800Z,39.20
2019-06-25T19:27:32.616Z,39.30
2019-06-25T19:30:06.994Z,39.60
2019-06-25T19:32:39.792Z,40.00
2019-06-25T19:35:12.748Z,41.00
2019-06-25T19:37:45.620Z,48.30
2019-06-25T19:40:18.867Z,55.80
2019-06-25T19:42:51.823Z,46.10
2019-06-25T19:45:24.793Z,45.90
2019-06-25T19:47:57.774Z,46.00
2019-06-25T19:50:30.948Z,45.80
2019-06-25T19:53:03.800Z,42.40
2019-06-25T19:55:36.809Z,42.70
2019-06-25T19:58:10.076Z,43.00
2019-06-25T20:00:43.064Z,43.10
2019-06-25T20:03:16.038Z,43.60
2019-06-25T20:05:48.964Z,43.90
2019-06-25T20:08:25.686Z,44.00
2019-06-25T20:11:11.444Z,44.60
2019-06-25T20:13:31.557Z,44.80
2019-06-25T20:16:04.385Z,45.00
2019-06-25T20:18:37.209Z,45.00
2019-06-25T20:21:10.237Z,45.20
2019-06-25T20:23:43.075Z,46.00
2019-06-25T20:26:17.808Z,46.60
2019-06-25T20:28:50.641Z,46.90
2019-06-25T20:31:23.480Z,47.30
2019-06-25T20:33:56.467Z,47.70
2019-06-25T20:36:29.338Z,48.80
2019-06-25T20:39:03.170Z,48.80
2019-06-25T20:41:37.944Z,49.10
2019-06-25T20:44:10.790Z,50.10
2019-06-25T20:46:43.696Z,51.10
2019-06-25T20:49:16.583Z,51.10
2019-06-25T20:51:51.308Z,51.20
2019-06-25T20:54:24.152Z,50.70
2019-06-25T20:56:57.028Z,50.70
2019-06-25T20:59:31.038Z,51.60
2019-06-25T21:02:04.025Z,52.20
2019-06-25T21:04:36.928Z,51.60
2019-06-25T21:07:09.829Z,64.70
2019-06-25T21:09:42.844Z,62.00
2019-06-25T21:12:15.823Z,59.40
2019-06-25T21:14:48.821Z,57.60
2019-06-25T21:17:21.750Z,56.60
2019-06-25T21:19:54.680Z,57.00
2019-06-25T21:22:27.722Z,61.90
2019-06-25T21:25:00.744Z,62.20
2019-06-25T21:27:33.468Z,63.10
2019-06-25T21:30:07.676Z,62.70
2019-06-25T21:32:40.488Z,63.10
2019-06-25T21:35:13.578Z,62.80
2019-06-25T21:37:46.474Z,66.20
2019-06-25T21:40:19.471Z,69.00
2019-06-25T21:42:52.442Z,67.40
2019-06-25T21:45:25.376Z,67.00
2019-06-25T21:47:58.215Z,66.70
2019-06-25T21:50:31.118Z,67.00
2019-06-25T21:53:04.137Z,66.60
2019-06-25T21:55:38.910Z,64.20
2019-06-25T21:58:12.895Z,65.00
2019-06-25T22:00:46.061Z,65.20
2019-06-25T22:03:20.916Z,64.90
2019-06-25T22:05:53.789Z,64.70
2019-06-25T22:08:26.669Z,64.80
2019-06-25T22:10:59.681Z,66.10
2019-06-25T22:13:32.613Z,67.20
2019-06-25T22:16:05.722Z,66.50
2019-06-25T22:18:38.555Z,65.60
2019-06-25T22:21:12.475Z,65.00
2019-06-25T22:23:45.333Z,64.70
2019-06-25T22:26:18.260Z,64.80
2019-06-25T22:28:51.280Z,66.10
2019-06-25T22:31:26.026Z,66.20
2019-06-25T22:34:00.123Z,67.60
2019-06-25T22:36:33.162Z,67.80
2019-06-25T22:39:07.052Z,68.60
2019-06-25T22:41:41.869Z,69.60
2019-06-25T22:44:14.846Z,68.70
2019-06-25T22:46:47.867Z,69.30
2019-06-25T22:49:20.639Z,69.50
2019-06-25T22:51:53.713Z,69.90
2019-06-25T22:54:27.656Z,70.20
2019-06-25T22:57:00.797Z,70.30
2019-06-25T22:59:33.688Z,70.00
2019-06-25T23:02:06.522Z,69.60
2019-06-25T23:04:39.410Z,69.50
2019-06-25T23:07:14.067Z,69.50
2019-06-25T23:09:48.059Z,70.50
2019-06-25T23:12:20.869Z,71.30
2019-06-25T23:14:53.836Z,72.10
2019-06-25T23:17:26.660Z,73.00
2019-06-25T23:19:59.584Z,72.90
2019-06-25T23:22:33.179Z,72.70
2019-06-25T23:25:06.354Z,72.60
2019-06-25T23:27:39.208Z,72.80
2019-06-25T23:30:13.354Z,72.70
2019-06-25T23:32:46.174Z,73.40
2019-06-25T23:35:19.020Z,73.10
2019-06-25T23:37:51.858Z,73.20
2019-06-25T23:40:24.740Z,73.30
2019-06-25T23:43:09.692Z,73.70
2019-06-25T23:45:32.317Z,73.80
2019-06-25T23:48:05.139Z,74.20
2019-06-25T23:50:38.977Z,74.80
2019-06-25T23:53:11.779Z,75.10
2019-06-25T23:55:44.617Z,75.40
2019-06-25T23:58:17.443Z,75.30
